Albion, Nebraska
Current Conditions -  °F | °C
As of 10:55 AM on Thursday 27 Nov 2014 (Local Time) from KBVN Reporting Station
Scattered Clouds Scattered Clouds  
Wind Chill: 13°   Ceiling: Unl
Heat Index: 24°   Visibility: 10mi
Dew Point: 11°   Wind: 13mph
Humidity: 58%   Direction: 130°SE
Pressure: 30.39"   Gusts: NA
Location:  41.69°N, 98°W
Report Text: KBVN 271655Z AUTO 13011KT 10SM SCT100 M04/M11 A3039 RMK AO2 T10431115
Loading
Personal Weather Stations






























Interactive Weather Map New forecast layout! Learn more

10-Day Weather Forecast

Advertisements
Track Severe Weather on mobile